Time;durP1;ratioP1;P1;durP2;ratioP2;P2;SDS_P1;SDS_P2;PMS_P1;PMS_P2;Temp;Humidity;BMP_temperature;BMP_pressure;BME280_temperature;BME280_humidity;BME280_pressure;Samples;Min_cycle;Max_cycle;Signal;HPM_P1;HPM_P2
2021/08/19 00:00:36;;;;;;;6.88;5.08;;;;;;;16.45;75.14;99213.88;130134;1090;23672;-63
2021/08/19 00:03:05;;;;;;;6.95;5.48;;;;;;;16.45;75.50;99216.63;130029;1089;114220;-63
2021/08/19 00:05:36;;;;;;;7.35;5.48;;;;;;;16.44;75.97;99212.27;130083;1090;22589;-64
2021/08/19 00:08:12;;;;;;;8.73;5.57;;;;;;;16.40;75.78;99211.23;130008;1090;113988;-63
2021/08/19 00:10:41;;;;;;;6.65;5.90;;;;;;;16.37;76.06;99205.52;130178;1090;23664;-63
2021/08/19 00:13:29;;;;;;;9.63;5.58;;;;;;;16.33;76.01;99199.81;129949;1089;114250;-63
2021/08/19 00:16:00;;;;;;;10.60;6.05;;;;;;;16.22;76.10;99179.95;130114;1090;22664;-63
2021/08/19 00:18:30;;;;;;;8.43;6.23;;;;;;;16.26;76.16;99202.16;130147;1090;22666;-63
2021/08/19 00:21:05;;;;;;;7.60;6.08;;;;;;;16.21;76.20;99197.55;129978;1088;114083;-63
2021/08/19 00:23:36;;;;;;;8.00;5.58;;;;;;;16.17;75.95;99191.02;130078;1090;22589;-62
2021/08/19 00:26:25;;;;;;;7.93;5.55;;;;;;;16.10;76.10;99189.80;130006;1090;115116;-63
2021/08/19 00:28:54;;;;;;;6.80;5.73;;;;;;;16.04;76.10;99197.31;130086;1090;22560;-63
2021/08/19 00:31:22;;;;;;;9.70;6.10;;;;;;;16.02;75.72;99195.98;130002;1090;114235;-63
2021/08/19 00:33:52;;;;;;;7.45;5.03;;;;;;;15.98;75.67;99192.22;130113;1090;22566;-62
2021/08/19 00:36:20;;;;;;;6.88;5.05;;;;;;;15.95;75.51;99199.13;130120;1090;22570;-63
2021/08/19 00:38:49;;;;;;;5.23;4.05;;;;;;;15.89;75.16;99201.14;130012;1090;113824;-62
2021/08/19 00:41:30;;;;;;;5.48;4.68;;;;;;;15.86;75.13;99193.52;130110;1089;23665;-62
2021/08/19 00:43:59;;;;;;;5.03;4.40;;;;;;;15.82;75.17;99197.16;129954;1091;113640;-62
2021/08/19 00:46:36;;;;;;;6.28;4.83;;;;;;;15.78;75.02;99199.69;130124;1089;22587;-62
2021/08/19 00:49:09;;;;;;;7.18;4.63;;;;;;;15.74;75.19;99201.39;130026;1090;116979;-62
2021/08/19 00:51:46;;;;;;;5.85;4.68;;;;;;;15.73;75.49;99205.25;130131;1090;22719;-62
2021/08/19 00:54:21;;;;;;;7.73;4.73;;;;;;;15.73;75.65;99209.92;130114;1088;22529;-62
2021/08/19 00:57:01;;;;;;;9.88;5.45;;;;;;;15.70;75.92;99218.79;129971;1090;113582;-62
2021/08/19 00:59:30;;;;;;;8.58;5.18;;;;;;;15.68;75.99;99227.33;130130;1089;22686;-61
2021/08/19 01:02:02;;;;;;;6.68;4.68;;;;;;;15.64;76.24;99237.27;129984;1090;113920;-62
2021/08/19 01:04:51;;;;;;;7.55;5.38;;;;;;;15.65;76.36;99238.90;130095;1088;23924;-62
2021/08/19 01:07:19;;;;;;;7.83;5.38;;;;;;;15.66;76.79;99242.47;129989;1088;113902;-62
2021/08/19 01:09:48;;;;;;;8.88;5.53;;;;;;;15.65;77.08;99238.90;130105;1090;23345;-62
2021/08/19 01:12:19;;;;;;;10.25;6.80;;;;;;;15.62;77.38;99234.00;130126;1090;22688;-62
2021/08/19 01:15:09;;;;;;;9.48;6.58;;;;;;;15.60;77.56;99230.73;129976;1090;113924;-62
2021/08/19 01:17:40;;;;;;;14.30;7.58;;;;;;;15.57;77.72;99225.04;130100;1090;23413;-63
2021/08/19 01:20:09;;;;;;;8.20;6.35;;;;;;;15.55;78.12;99222.59;129973;1089;116321;-62
2021/08/19 01:22:40;;;;;;;6.65;5.33;;;;;;;15.50;77.99;99225.37;130083;1092;22677;-62
2021/08/19 01:25:11;;;;;;;7.83;5.35;;;;;;;15.45;78.06;99222.69;129978;1090;113883;-62
2021/08/19 01:28:00;;;;;;;11.48;5.55;;;;;;;15.44;78.22;99243.02;130092;1090;22674;-62
2021/08/19 01:30:28;;;;;;;6.55;5.45;;;;;;;15.44;78.35;99238.34;130079;1092;22722;-62
2021/08/19 01:32:57;;;;;;;10.38;5.53;;;;;;;15.43;78.19;99239.48;129965;1089;113640;-62
2021/08/19 01:35:32;;;;;;;7.88;4.85;;;;;;;15.43;78.03;99231.25;130055;1089;22688;-63
2021/08/19 01:38:01;;;;;;;8.08;5.20;;;;;;;15.41;78.14;99240.89;129970;1090;113879;-62
2021/08/19 01:40:45;;;;;;;6.43;5.18;;;;;;;15.37;78.11;99237.91;126949;1089;22962;-62
2021/08/19 01:43:14;;;;;;;7.50;4.85;;;;;;;15.36;78.03;99230.78;129818;1090;113939;-62
2021/08/19 01:45:43;;;;;;;5.38;4.65;;;;;;;15.34;77.69;99233.01;130071;1090;23155;-62
2021/08/19 01:48:15;;;;;;;7.60;5.80;;;;;;;15.33;78.15;99230.55;130102;1090;23044;-62
2021/08/19 01:50:45;;;;;;;6.63;4.53;;;;;;;15.29;78.15;99219.38;129961;1090;113798;-62
2021/08/19 01:53:14;;;;;;;5.90;4.45;;;;;;;15.27;78.12;99218.03;130109;1090;22701;-62
2021/08/19 01:55:47;;;;;;;8.15;4.78;;;;;;;15.25;78.50;99215.58;129967;1089;115042;-62
2021/08/19 01:58:17;;;;;;;8.08;4.45;;;;;;;15.24;78.39;99224.92;130085;1090;22612;-62
2021/08/19 02:00:46;;;;;;;9.68;4.43;;;;;;;15.23;78.57;99222.47;130114;1090;22617;-62
2021/08/19 02:03:26;;;;;;;7.35;4.78;;;;;;;15.24;78.46;99229.59;129972;1089;113581;-62
2021/08/19 02:05:56;;;;;;;7.53;4.73;;;;;;;15.26;78.39;99230.13;130113;1090;22597;-62
2021/08/19 02:08:44;;;;;;;6.13;4.85;;;;;;;15.29;78.65;99224.86;129996;1090;113441;-63
2021/08/19 02:11:13;;;;;;;9.10;4.95;;;;;;;15.33;78.66;99225.06;130068;1090;22592;-62
2021/08/19 02:13:42;;;;;;;6.18;4.15;;;;;;;15.33;78.33;99212.16;130004;1088;114043;-63
2021/08/19 02:16:27;;;;;;;5.18;4.68;;;;;;;15.33;78.66;99209.41;130104;1090;22563;-62
2021/08/19 02:18:59;;;;;;;8.48;4.95;;;;;;;15.27;78.42;99204.31;130118;1089;23296;-62
2021/08/19 02:21:28;;;;;;;6.23;5.00;;;;;;;15.32;78.69;99218.76;129975;1090;113519;-62
2021/08/19 02:23:57;;;;;;;7.33;5.05;;;;;;;15.33;78.71;99222.31;130060;1090;23142;-62
2021/08/19 02:26:26;;;;;;;6.50;4.95;;;;;;;15.33;78.90;99209.41;129940;1090;113910;-62
2021/08/19 02:28:55;;;;;;;5.38;4.73;;;;;;;15.32;79.04;99212.45;130100;1090;22562;-62
2021/08/19 02:31:23;;;;;;;8.73;5.10;;;;;;;15.30;79.12;99215.48;129958;1089;114174;-62
2021/08/19 02:33:52;;;;;;;7.18;5.10;;;;;;;15.29;79.37;99216.63;130050;1090;22557;-62
2021/08/19 02:36:20;;;;;;;7.58;5.35;;;;;;;15.30;79.51;99226.47;130078;1090;22607;-62
2021/08/19 02:38:49;;;;;;;11.78;5.45;;;;;;;15.29;79.29;99224.86;129969;1089;113658;-62
2021/08/19 02:41:19;;;;;;;11.83;5.85;;;;;;;15.29;79.20;99226.80;130108;1090;22593;-62
2021/08/19 02:43:49;;;;;;;7.45;5.08;;;;;;;15.27;79.32;99229.02;130007;1090;113974;-62
2021/08/19 02:46:17;;;;;;;11.17;5.20;;;;;;;15.24;79.37;99229.59;130063;1090;22564;-62
2021/08/19 02:48:46;;;;;;;6.93;5.85;;;;;;;15.23;79.63;99233.45;130102;1090;22539;-62
2021/08/19 02:51:18;;;;;;;9.30;5.33;;;;;;;15.20;79.62;99235.67;129996;1090;112893;-62
2021/08/19 02:53:47;;;;;;;7.18;4.78;;;;;;;15.17;79.67;99228.02;130094;1090;22666;-62
2021/08/19 02:56:16;;;;;;;7.43;4.68;;;;;;;15.15;79.74;99227.50;130011;1089;113787;-62
2021/08/19 02:58:45;;;;;;;5.95;5.00;;;;;;;15.14;79.53;99223.14;130140;1090;22580;-62
2021/08/19 03:01:14;;;;;;;8.45;5.08;;;;;;;15.13;79.39;99221.52;129931;1090;113843;-62
2021/08/19 03:03:43;;;;;;;6.15;5.00;;;;;;;15.13;79.33;99223.44;130083;1090;23124;-61
2021/08/19 03:06:14;;;;;;;8.43;5.08;;;;;;;15.13;79.59;99226.19;130097;1090;22639;-59
2021/08/19 03:08:43;;;;;;;8.23;5.15;;;;;;;15.11;79.50;99228.41;129986;1090;114078;-62
2021/08/19 03:11:32;;;;;;;7.03;5.05;;;;;;;15.11;79.42;99233.89;130064;1089;22592;-61
2021/08/19 03:14:01;;;;;;;9.75;5.33;;;;;;;15.12;79.52;99244.58;129992;1090;113839;-61
2021/08/19 03:16:30;;;;;;;10.68;5.70;;;;;;;15.15;79.71;99246.70;130045;1089;23105;-61
2021/08/19 03:19:19;;;;;;;7.68;5.78;;;;;;;15.20;79.85;99248.58;129976;1090;113986;-61
2021/08/19 03:21:47;;;;;;;8.28;6.03;;;;;;;15.24;79.97;99243.32;130043;1090;22608;-61
2021/08/19 03:24:16;;;;;;;10.50;6.90;;;;;;;15.28;79.92;99255.34;130077;1090;25504;-61
2021/08/19 03:26:45;;;;;;;9.88;5.78;;;;;;;15.28;80.30;99253.42;129931;1090;115017;-61
2021/08/19 03:29:14;;;;;;;9.38;5.73;;;;;;;15.31;80.22;99250.06;130106;1090;23167;-61
2021/08/19 03:31:46;;;;;;;9.85;5.95;;;;;;;15.33;80.42;99250.59;129950;1089;114479;-62
2021/08/19 03:34:15;;;;;;;9.45;6.00;;;;;;;15.36;80.37;99246.44;130044;1090;22657;-61
2021/08/19 03:36:46;;;;;;;6.75;4.98;;;;;;;15.36;80.13;99240.95;130082;1090;22995;-63
2021/08/19 03:39:15;;;;;;;11.38;5.80;;;;;;;15.37;80.03;99256.31;129730;1088;114208;-63
2021/08/19 03:41:43;;;;;;;6.88;5.18;;;;;;;15.38;79.88;99260.69;125427;1089;22802;-62
2021/08/19 03:44:15;;;;;;;8.25;5.48;;;;;;;15.40;80.02;99258.47;125378;1090;114230;-62
2021/08/19 03:46:44;;;;;;;6.73;5.25;;;;;;;15.40;80.20;99251.05;125439;1090;22851;-62
2021/08/19 03:49:15;;;;;;;8.28;5.03;;;;;;;15.36;80.18;99249.19;129950;1089;113729;-63
2021/08/19 03:51:44;;;;;;;11.13;5.98;;;;;;;15.33;80.55;99247.02;130076;1090;22619;-63
2021/08/19 03:54:13;;;;;;;7.63;5.55;;;;;;;15.30;80.49;99239.38;130120;1090;22550;-63
2021/08/19 03:56:42;;;;;;;13.98;5.70;;;;;;;15.32;80.95;99248.14;129950;1090;113933;-63
2021/08/19 03:59:11;;;;;;;10.38;5.83;;;;;;;15.30;80.94;99248.42;130077;1090;23597;-63
2021/08/19 04:01:40;;;;;;;6.38;5.60;;;;;;;15.32;81.23;99259.11;129983;1090;114407;-63
2021/08/19 04:04:09;;;;;;;8.80;6.03;;;;;;;15.36;81.46;99262.91;130084;1090;22728;-63
2021/08/19 04:06:39;;;;;;;11.43;6.18;;;;;;;15.40;81.50;99267.52;130061;1090;22663;-63
2021/08/19 04:09:08;;;;;;;8.50;6.08;;;;;;;15.46;81.67;99262.76;129989;1090;113831;-63
2021/08/19 04:11:51;;;;;;;6.63;6.03;;;;;;;15.53;81.98;99269.53;130086;1090;22614;-60
2021/08/19 04:14:20;;;;;;;8.00;6.53;;;;;;;15.59;82.02;99269.47;129994;1090;113844;-62
2021/08/19 04:16:53;;;;;;;10.90;6.38;;;;;;;15.64;81.83;99272.16;130095;1089;22561;-62
2021/08/19 04:19:22;;;;;;;12.10;6.25;;;;;;;15.69;81.95;99269.34;129958;1087;113163;-63
2021/08/19 04:21:52;;;;;;;6.80;6.18;;;;;;;15.73;81.91;99273.92;130082;1090;22582;-63
2021/08/19 04:24:40;;;;;;;7.90;6.45;;;;;;;15.78;81.96;99271.11;130096;1090;22577;-62
2021/08/19 04:27:10;;;;;;;9.88;6.90;;;;;;;15.80;81.76;99276.30;129985;1090;113836;-62
2021/08/19 04:29:39;;;;;;;7.78;6.45;;;;;;;15.85;81.84;99277.05;130023;1090;22830;-62
2021/08/19 04:32:07;;;;;;;12.00;7.40;;;;;;;15.90;81.87;99273.39;129944;1090;113555;-63
2021/08/19 04:34:36;;;;;;;13.48;7.08;;;;;;;15.95;82.08;99275.25;130060;1090;22589;-62
2021/08/19 04:37:09;;;;;;;12.43;7.65;;;;;;;16.01;81.85;99274.06;129949;1090;114114;-61
2021/08/19 04:39:38;;;;;;;11.90;7.45;;;;;;;16.05;81.82;99280.58;130057;1088;22689;-61
2021/08/19 04:42:06;;;;;;;9.45;7.48;;;;;;;16.10;81.70;99286.00;130111;1088;22555;-65
2021/08/19 04:44:35;;;;;;;13.00;7.05;;;;;;;16.13;81.38;99282.66;130004;1090;113833;-62
2021/08/19 04:47:04;;;;;;;8.80;7.38;;;;;;;16.14;81.09;99276.05;130107;1090;22563;-62
2021/08/19 04:49:33;;;;;;;7.43;6.03;;;;;;;16.15;80.69;99278.50;129971;1090;114256;-65
2021/08/19 04:52:03;;;;;;;13.80;7.23;;;;;;;16.17;80.33;99284.48;130072;1089;22844;-62
2021/08/19 04:54:31;;;;;;;11.50;8.08;;;;;;;16.19;80.11;99286.94;130097;1090;22547;-64
2021/08/19 04:57:00;;;;;;;12.35;6.98;;;;;;;16.21;79.81;99282.77;130013;1090;115288;-64
2021/08/19 04:59:32;;;;;;;12.80;7.05;;;;;;;16.21;79.22;99296.52;130087;1090;22586;-63
2021/08/19 05:02:01;;;;;;;11.40;7.23;;;;;;;16.18;78.80;99294.36;129933;1090;113956;-64
2021/08/19 05:04:31;;;;;;;7.65;6.20;;;;;;;16.16;78.40;99288.34;130081;1090;23800;-63
2021/08/19 05:07:00;;;;;;;13.43;7.15;;;;;;;16.15;78.27;99291.42;130068;1090;22698;-64
2021/08/19 05:09:33;;;;;;;13.68;7.33;;;;;;;16.17;78.52;99286.41;129992;1089;113993;-64
2021/08/19 05:12:02;;;;;;;14.93;7.78;;;;;;;16.19;78.65;99281.44;130121;1090;22681;-63
2021/08/19 05:14:31;;;;;;;14.65;7.78;;;;;;;16.24;78.90;99281.36;129974;1089;113975;-64
2021/08/19 05:17:00;;;;;;;10.23;7.43;;;;;;;16.27;78.43;99283.52;130107;1090;22591;-63
2021/08/19 05:19:28;;;;;;;12.70;8.23;;;;;;;16.28;78.18;99287.90;129976;1090;114550;-63
2021/08/19 05:21:57;;;;;;;9.60;6.73;;;;;;;16.31;77.81;99283.70;130093;1090;22636;-64
2021/08/19 05:24:26;;;;;;;9.85;7.65;;;;;;;16.28;77.37;99279.66;130135;1090;23521;-63
2021/08/19 05:26:55;;;;;;;9.03;7.05;;;;;;;16.25;77.02;99288.49;130005;1090;114234;-63
2021/08/19 05:29:24;;;;;;;10.00;7.58;;;;;;;16.18;77.05;99277.05;130082;1088;23553;-63
2021/08/19 05:31:54;;;;;;;13.00;7.10;;;;;;;16.25;77.04;99285.74;130004;1090;114037;-65
2021/08/19 05:34:24;;;;;;;12.55;7.05;;;;;;;16.25;76.94;99285.74;130122;1090;23449;-67
2021/08/19 05:36:52;;;;;;;8.33;6.53;;;;;;;16.26;76.99;99288.20;130122;1090;23101;-63
2021/08/19 05:39:22;;;;;;;12.53;6.60;;;;;;;16.28;76.92;99293.39;130004;1090;113834;-68
2021/08/19 05:41:50;;;;;;;16.25;6.98;;;;;;;16.29;76.60;99292.28;130123;1090;22521;-67
2021/08/19 05:44:19;;;;;;;11.45;6.43;;;;;;;16.29;76.49;99281.28;129999;1090;113794;-65
2021/08/19 05:46:48;;;;;;;8.08;6.35;;;;;;;16.30;76.56;99280.17;130116;1089;22645;-64
2021/08/19 05:49:17;;;;;;;8.13;6.47;;;;;;;16.31;76.66;99283.70;130003;1090;113869;-63
2021/08/19 05:52:06;;;;;;;8.15;7.08;;;;;;;16.32;76.50;99285.34;130086;1090;22654;-65
2021/08/19 05:54:35;;;;;;;12.40;8.18;;;;;;;16.39;76.84;99285.78;130120;1090;23547;-65
2021/08/19 05:57:04;;;;;;;13.70;9.28;;;;;;;16.43;76.40;99284.88;130000;1089;114033;-65
2021/08/19 05:59:33;;;;;;;7.93;6.53;;;;;;;16.48;75.91;99276.52;130083;1090;22593;-65
2021/08/19 06:02:02;;;;;;;9.03;6.60;;;;;;;16.51;75.92;99275.92;130002;1089;113627;-65
2021/08/19 06:04:31;;;;;;;9.50;6.23;;;;;;;16.44;75.52;99250.77;130150;1088;22564;-64
2021/08/19 06:07:02;;;;;;;11.78;6.53;;;;;;;16.59;75.51;99274.42;130115;1090;22578;-64
2021/08/19 06:09:34;;;;;;;13.98;6.40;;;;;;;16.63;75.66;99269.95;130013;1090;113879;-65
2021/08/19 06:12:04;;;;;;;12.40;6.43;;;;;;;16.70;75.59;99272.32;130109;1089;22553;-65
2021/08/19 06:14:32;;;;;;;10.10;5.90;;;;;;;16.73;74.79;99274.47;130008;1090;113991;-64
2021/08/19 06:17:02;;;;;;;7.48;5.65;;;;;;;16.75;74.43;99275.77;130112;1090;22596;-64
2021/08/19 06:19:31;;;;;;;9.80;5.53;;;;;;;16.77;74.06;99276.28;129977;1090;114090;-64
2021/08/19 06:21:59;;;;;;;8.03;5.63;;;;;;;16.77;73.71;99273.53;130097;1090;23146;-65
2021/08/19 06:24:48;;;;;;;9.90;6.28;;;;;;;16.79;73.76;99276.80;130097;1090;22660;-64
2021/08/19 06:27:19;;;;;;;9.63;6.00;;;;;;;16.80;73.38;99275.69;130025;1090;113591;-65
2021/08/19 06:30:06;;;;;;;8.40;5.68;;;;;;;16.83;73.42;99279.77;130118;1090;23130;-64
2021/08/19 06:32:35;;;;;;;7.88;5.88;;;;;;;16.85;73.15;99277.53;130013;1090;113829;-64
2021/08/19 06:35:04;;;;;;;12.53;6.97;;;;;;;16.89;73.38;99289.53;130120;1090;22539;-64
2021/08/19 06:37:33;;;;;;;9.75;6.28;;;;;;;16.90;73.22;99291.98;129994;1090;114606;-65
2021/08/19 06:40:02;;;;;;;10.23;6.15;;;;;;;16.89;73.53;99292.29;130135;1090;23372;-65
2021/08/19 06:42:31;;;;;;;13.53;6.45;;;;;;;17.00;73.37;99302.00;130091;1089;22557;-64
2021/08/19 06:45:00;;;;;;;10.33;5.98;;;;;;;17.07;73.27;99298.83;130023;1090;114114;-64
2021/08/19 06:47:29;;;;;;;9.83;6.30;;;;;;;17.14;73.12;99304.75;130094;1090;22699;-65
2021/08/19 06:49:58;;;;;;;8.25;5.68;;;;;;;17.18;72.70;99294.73;129977;1089;113679;-65
2021/08/19 06:52:45;;;;;;;;;;;;;;;17.22;72.98;99293.01;130171;1089;22645;-64
2021/08/19 06:55:14;;;;;;;9.63;5.85;;;;;;;17.27;73.18;99296.48;129982;1090;100211;-64
2021/08/19 06:57:43;;;;;;;7.93;6.10;;;;;;;17.36;73.23;99290.23;130126;1090;22568;-65
2021/08/19 07:00:13;;;;;;;11.05;6.95;;;;;;;17.39;73.07;99273.92;130149;1088;22597;-65
2021/08/19 07:02:43;;;;;;;12.33;7.65;;;;;;;17.54;72.67;99275.52;129976;1088;113809;-64
2021/08/19 07:05:12;;;;;;;12.58;7.55;;;;;;;17.61;71.90;99268.45;130083;1088;22606;-65
2021/08/19 07:07:41;;;;;;;12.88;7.63;;;;;;;17.68;71.67;99279.08;130039;1090;114247;-65
2021/08/19 07:10:10;;;;;;;10.48;6.78;;;;;;;17.74;71.66;99272.34;130112;1089;22748;-64
2021/08/19 07:12:40;;;;;;;12.08;8.05;;;;;;;17.79;71.34;99282.41;130117;1090;22640;-65
2021/08/19 07:15:09;;;;;;;9.33;7.50;;;;;;;17.83;71.05;99275.16;130040;1090;114449;-64
2021/08/19 07:17:39;;;;;;;15.63;8.08;;;;;;;17.87;70.87;99274.23;130131;1089;22661;-65
2021/08/19 07:20:09;;;;;;;13.38;8.15;;;;;;;17.92;71.33;99273.28;130003;1090;114072;-63
2021/08/19 07:22:38;;;;;;;9.20;5.68;;;;;;;17.97;70.96;99267.65;130144;1090;22688;-63
2021/08/19 07:25:07;;;;;;;10.00;5.75;;;;;;;18.01;70.74;99263.97;130074;1090;22674;-63
2021/08/19 07:27:36;;;;;;;6.98;5.90;;;;;;;18.00;70.83;99261.52;130022;1090;113625;-62
2021/08/19 07:30:05;;;;;;;7.03;4.60;;;;;;;18.12;70.43;99280.25;130113;1088;23197;-62
2021/08/19 07:32:34;;;;;;;8.13;5.15;;;;;;;18.19;69.71;99294.39;130037;1089;114002;-63
2021/08/19 07:35:04;;;;;;;6.10;4.63;;;;;;;18.22;68.30;99289.08;130128;1090;22694;-63
2021/08/19 07:37:34;;;;;;;7.23;5.10;;;;;;;18.27;68.17;99290.90;130053;1090;114006;-62
2021/08/19 07:40:04;;;;;;;7.68;4.48;;;;;;;18.31;68.07;99291.91;128222;1090;22829;-62
2021/08/19 07:42:33;;;;;;;9.43;4.48;;;;;;;18.36;67.62;99295.34;130130;1090;22572;-63
2021/08/19 07:45:02;;;;;;;6.73;5.00;;;;;;;18.42;67.75;99292.45;130012;1090;113737;-63
2021/08/19 07:47:30;;;;;;;6.85;4.53;;;;;;;18.47;66.26;99295.88;130127;1090;23564;-63
2021/08/19 07:49:59;;;;;;;7.78;5.78;;;;;;;18.47;65.49;99289.55;129992;1090;114965;-62
2021/08/19 07:52:28;;;;;;;11.15;5.88;;;;;;;18.50;65.15;99294.44;130139;1090;23116;-62
2021/08/19 07:54:56;;;;;;;14.80;6.15;;;;;;;18.52;65.23;99297.70;130114;1089;23098;-63
2021/08/19 07:57:25;;;;;;;11.48;6.65;;;;;;;18.54;65.71;99299.02;129972;1090;114541;-63
2021/08/19 07:59:54;;;;;;;9.85;6.33;;;;;;;18.59;65.50;99289.84;130095;1090;22585;-63
2021/08/19 08:02:24;;;;;;;9.23;5.68;;;;;;;18.66;65.99;99293.76;129993;1088;114212;-63
2021/08/19 08:04:52;;;;;;;12.75;4.95;;;;;;;18.74;65.19;99292.19;130149;1089;22672;-64
2021/08/19 08:07:24;;;;;;;7.55;5.03;;;;;;;18.84;64.61;99288.33;130029;1089;114596;-63
2021/08/19 08:09:52;;;;;;;16.40;6.15;;;;;;;18.90;63.83;99285.09;130108;1090;23256;-63
2021/08/19 08:12:22;;;;;;;10.93;5.98;;;;;;;18.97;63.71;99284.64;130099;1089;22555;-64
2021/08/19 08:14:51;;;;;;;8.55;4.93;;;;;;;18.99;61.95;99279.62;129948;1090;114483;-63
2021/08/19 08:17:20;;;;;;;6.35;4.75;;;;;;;18.97;61.77;99292.92;130084;1090;22574;-63
2021/08/19 08:19:52;;;;;;;10.58;4.70;;;;;;;18.95;61.70;99284.14;129964;1089;114178;-63
2021/08/19 08:22:21;;;;;;;12.03;4.80;;;;;;;18.98;62.43;99283.51;130500;1088;23390;-63
2021/08/19 08:24:50;;;;;;;8.93;5.70;;;;;;;19.05;62.32;99284.66;130457;1088;22578;-63
2021/08/19 08:27:20;;;;;;;6.15;4.30;;;;;;;19.12;61.13;99288.91;130345;1088;114038;-63
2021/08/19 08:29:49;;;;;;;6.13;4.55;;;;;;;19.14;60.36;99286.66;130522;1088;22710;-63
2021/08/19 08:32:18;;;;;;;8.70;5.33;;;;;;;19.14;60.94;99286.66;130118;1089;113179;-63
2021/08/19 08:34:47;;;;;;;10.50;5.53;;;;;;;19.20;60.75;99291.70;130466;1089;22565;-64
2021/08/19 08:37:16;;;;;;;10.55;6.15;;;;;;;19.24;61.20;99280.83;130350;1089;114086;-63
2021/08/19 08:39:45;;;;;;;11.38;6.03;;;;;;;19.29;60.65;99287.02;130496;1090;22611;-63
2021/08/19 08:42:14;;;;;;;8.57;5.97;;;;;;;19.29;60.62;99284.27;130497;1090;22500;-63
2021/08/19 08:44:44;;;;;;;10.83;5.85;;;;;;;19.32;60.72;99280.05;130326;1089;113797;-63
2021/08/19 08:47:13;;;;;;;17.23;6.90;;;;;;;19.36;59.92;99278.25;130482;1088;23705;-63
2021/08/19 08:49:42;;;;;;;11.53;6.85;;;;;;;19.40;59.98;99282.00;130399;1090;113976;-63
2021/08/19 08:52:11;;;;;;;12.53;6.85;;;;;;;19.40;60.36;99269.00;130403;1090;22658;-63
2021/08/19 08:54:40;;;;;;;9.45;6.25;;;;;;;19.45;61.11;99281.86;130486;1089;22566;-64
2021/08/19 08:57:10;;;;;;;12.93;5.90;;;;;;;19.48;61.29;99267.38;130376;1090;113826;-64
2021/08/19 08:59:57;;;;;;;8.08;5.85;;;;;;;19.51;60.64;99255.72;130412;1089;22606;-63
2021/08/19 09:02:27;;;;;;;8.48;5.98;;;;;;;19.52;60.31;99265.63;130338;1090;113747;-63
2021/08/19 09:05:15;;;;;;;8.25;5.73;;;;;;;19.49;59.17;99251.61;130369;1090;22584;-64
2021/08/19 09:07:45;;;;;;;8.18;5.25;;;;;;;19.43;58.68;99250.97;130325;1088;114353;-63
2021/08/19 09:10:30;;;;;;;8.50;5.50;;;;;;;19.37;59.73;99241.20;130463;1088;22561;-63
2021/08/19 09:13:10;;;;;;;6.63;5.65;;;;;;;19.33;59.41;99245.77;130465;1089;23613;-63
2021/08/19 09:17:05;;;;;;;7.83;5.83;;;;;;;19.29;59.06;99253.06;125672;1091;22794;-62
2021/08/19 09:19:53;;;;;;;8.18;5.28;;;;;;;19.25;58.66;99247.36;129770;1092;114024;-64
2021/08/19 09:22:22;;;;;;;11.13;5.55;;;;;;;19.27;58.30;99247.04;129677;1093;22570;-63
2021/08/19 09:24:53;;;;;;;10.43;5.68;;;;;;;19.31;58.01;99243.33;129764;1093;22566;-64
2021/08/19 09:27:21;;;;;;;12.30;6.20;;;;;;;19.37;58.56;99236.48;129679;1093;113354;-63
2021/08/19 09:29:52;;;;;;;9.07;6.00;;;;;;;19.45;58.95;99236.84;129795;1093;23125;-63
2021/08/19 09:32:22;;;;;;;6.78;5.15;;;;;;;19.52;58.31;99242.71;129641;1093;113811;-64
2021/08/19 09:34:51;;;;;;;7.30;5.05;;;;;;;19.56;58.08;99243.70;129746;1093;22674;-65
2021/08/19 09:37:24;;;;;;;7.93;5.35;;;;;;;19.59;58.04;99245.83;129705;1093;113752;-64
2021/08/19 09:39:58;;;;;;;10.23;6.63;;;;;;;19.60;57.87;99239.97;129768;1093;22696;-64
2021/08/19 09:42:37;;;;;;;9.13;5.85;;;;;;;19.60;58.23;99242.73;129848;1092;22546;-64
2021/08/19 09:45:21;;;;;;;7.25;5.83;;;;;;;19.63;59.25;99250.36;129710;1093;114122;-65
2021/08/19 09:47:51;;;;;;;8.28;5.08;;;;;;;19.68;57.84;99252.97;129796;1092;22562;-66
2021/08/19 09:50:21;;;;;;;10.05;6.70;;;;;;;19.74;58.77;99242.58;129710;1092;114107;-65
2021/08/19 09:52:52;;;;;;;10.30;6.38;;;;;;;19.81;58.84;99245.65;129820;1092;23669;-66
2021/08/19 09:55:27;;;;;;;12.78;6.18;;;;;;;19.87;58.79;99244.36;129695;1092;113698;-65
2021/08/19 09:57:58;;;;;;;9.90;6.25;;;;;;;19.91;58.29;99237.02;129814;1093;22567;-65
2021/08/19 10:00:28;;;;;;;10.00;5.85;;;;;;;19.93;57.95;99233.92;129762;1093;22588;-66
2021/08/19 10:02:58;;;;;;;10.78;6.38;;;;;;;19.94;58.21;99233.60;129673;1093;113605;-65
2021/08/19 10:05:27;;;;;;;9.28;6.05;;;;;;;19.97;57.91;99240.44;129830;1092;22569;-63
2021/08/19 10:07:59;;;;;;;6.85;5.65;;;;;;;20.00;56.91;99242.56;129712;1092;113612;-64
2021/08/19 10:10:28;;;;;;;10.98;5.23;;;;;;;19.99;56.10;99236.21;129803;1092;22600;-64
2021/08/19 10:13:18;;;;;;;9.60;6.20;;;;;;;20.02;57.04;99226.45;129670;1093;113750;-65
2021/08/19 10:15:49;;;;;;;7.85;5.50;;;;;;;20.05;55.60;99228.57;129778;1093;22567;-64
2021/08/19 10:18:38;;;;;;;8.35;5.55;;;;;;;20.05;55.31;99234.10;129760;1093;22568;-64
2021/08/19 10:21:09;;;;;;;10.75;5.63;;;;;;;20.03;55.57;99239.14;129654;1093;114460;-65
2021/08/19 10:23:58;;;;;;;8.03;5.33;;;;;;;20.05;55.69;99234.88;129783;1093;22563;-64
2021/08/19 10:26:27;;;;;;;8.45;5.80;;;;;;;20.11;55.87;99232.77;129649;1093;113713;-64
2021/08/19 10:28:57;;;;;;;8.30;5.95;;;;;;;20.16;55.69;99221.55;129799;1093;22581;-64
2021/08/19 10:31:35;;;;;;;8.93;5.20;;;;;;;20.23;55.33;99234.86;129618;1093;113738;-64
2021/08/19 10:34:04;;;;;;;7.85;5.58;;;;;;;20.28;54.75;99226.40;129819;1092;23107;-65
2021/08/19 10:36:42;;;;;;;11.00;6.40;;;;;;;20.30;54.20;99224.13;129800;1092;23289;-65
2021/08/19 10:39:20;;;;;;;7.80;5.30;;;;;;;20.27;52.61;99233.07;129557;1093;114276;-63
2021/08/19 10:41:50;;;;;;;6.23;4.85;;;;;;;20.23;52.99;99224.61;129794;1092;22558;-64
2021/08/19 10:44:30;;;;;;;7.98;5.60;;;;;;;20.25;53.38;99232.58;129713;1093;114119;-63
2021/08/19 10:47:32;;;;;;;6.90;5.05;;;;;;;20.29;53.90;99222.49;129809;1092;22671;-64
2021/08/19 10:50:27;;;;;;;8.50;5.48;;;;;;;20.37;54.49;99214.19;129709;1093;113682;-64
2021/08/19 10:53:21;;;;;;;12.08;5.40;;;;;;;20.50;53.95;99217.88;129797;1093;22540;-64
2021/08/19 10:55:53;;;;;;;6.90;5.48;;;;;;;20.61;53.88;99219.17;129688;1092;113957;-65
2021/08/19 10:58:24;;;;;;;9.38;5.35;;;;;;;20.73;53.46;99222.05;129735;1093;22544;-65
2021/08/19 11:00:54;;;;;;;6.63;5.40;;;;;;;20.82;53.20;99219.23;129765;1093;22627;-65
2021/08/19 11:03:36;;;;;;;8.28;5.68;;;;;;;20.90;53.11;99231.42;129697;1093;112959;-64
2021/08/19 11:06:07;;;;;;;7.55;5.45;;;;;;;20.93;52.13;99223.23;129795;1093;22615;-64
2021/08/19 11:08:59;;;;;;;8.05;5.43;;;;;;;20.95;52.63;99232.03;129691;1093;113637;-65
2021/08/19 11:11:27;;;;;;;5.43;4.40;;;;;;;21.00;51.86;99223.54;129820;1092;22553;-65
2021/08/19 11:13:59;;;;;;;7.55;5.05;;;;;;;21.06;52.43;99227.72;129715;1092;113582;-64
2021/08/19 11:16:28;;;;;;;8.75;5.48;;;;;;;21.13;52.10;99235.53;129755;1092;22594;-65
2021/08/19 11:19:18;;;;;;;6.75;5.00;;;;;;;21.18;51.77;99235.34;129720;1093;115179;-65
2021/08/19 11:21:54;;;;;;;7.38;4.58;;;;;;;21.21;51.88;99233.90;129799;1092;22567;-64
2021/08/19 11:24:24;;;;;;;6.43;5.00;;;;;;;21.23;51.81;99226.84;129795;1093;23248;-65
2021/08/19 11:27:13;;;;;;;6.93;5.13;;;;;;;21.28;51.48;99215.58;129708;1093;112857;-64
2021/08/19 11:29:43;;;;;;;7.35;5.25;;;;;;;21.28;51.42;99215.58;129833;1093;22621;-64
2021/08/19 11:32:32;;;;;;;5.55;4.60;;;;;;;21.27;51.14;99218.69;129651;1093;113806;-64
2021/08/19 11:35:29;;;;;;;6.60;5.03;;;;;;;21.26;51.91;99201.24;129742;1093;22585;-64
2021/08/19 11:38:11;;;;;;;10.55;4.80;;;;;;;21.30;51.74;99215.25;129686;1092;114921;-64
2021/08/19 11:40:42;;;;;;;8.37;5.47;;;;;;;21.33;50.81;99212.62;129807;1093;22588;-64
2021/08/19 11:43:29;;;;;;;8.25;5.93;;;;;;;21.35;50.72;99212.29;129785;1093;22547;-64